Time;durP1;ratioP1;P1;durP2;ratioP2;P2;SDS_P1;SDS_P2;PMS_P1;PMS_P2;Temp;Humidity;BMP_temperature;BMP_pressure;BME280_temperature;BME280_humidity;BME280_pressure;Samples;Min_cycle;Max_cycle;Signal;HPM_P1;HPM_P2
2021/11/28 00:01:55;;;;;;;5.83;3.50;;;3.20;99.90;;;;;;5021433;28;20052;-78
2021/11/28 00:04:21;;;;;;;6.57;3.77;;;3.20;99.90;;;;;;5023387;28;20026;-78
2021/11/28 00:07:02;;;;;;;7.60;3.53;;;3.30;99.90;;;;;;5005124;28;20454;-78
2021/11/28 00:10:13;;;;;;;6.07;3.37;;;3.30;99.90;;;;;;5005404;28;20398;-78
2021/11/28 00:14:45;;;;;;;7.50;3.70;;;3.30;99.90;;;;;;5029923;28;20113;-78
2021/11/28 00:17:12;;;;;;;8.07;3.90;;;3.30;99.90;;;;;;5016752;28;20025;-79
2021/11/28 00:19:40;;;;;;;8.27;4.20;;;3.30;99.90;;;;;;5016695;28;20083;-78
2021/11/28 00:22:06;;;;;;;6.40;3.50;;;3.30;99.90;;;;;;5016845;28;20103;-79
2021/11/28 00:24:33;;;;;;;8.73;3.53;;;3.40;99.90;;;;;;5016988;28;20017;-78
2021/11/28 00:26:59;;;;;;;9.20;4.47;;;3.30;99.90;;;;;;5016283;28;20028;-78
2021/11/28 00:29:24;;;;;;;9.67;3.90;;;3.20;99.90;;;;;;5016576;28;20029;-79
2021/11/28 00:31:50;;;;;;;7.40;4.10;;;3.30;99.90;;;;;;5015372;28;20531;-78
2021/11/28 00:34:16;;;;;;;7.00;4.00;;;3.40;99.90;;;;;;5016833;28;20617;-78
2021/11/28 00:36:41;;;;;;;8.00;3.87;;;3.40;99.90;;;;;;5012821;28;20034;-77
2021/11/28 00:39:08;;;;;;;8.73;4.50;;;3.40;99.90;;;;;;4996878;28;20018;-78
2021/11/28 00:41:33;;;;;;;10.03;5.27;;;3.30;99.90;;;;;;5002185;28;20520;-77
2021/11/28 00:43:59;;;;;;;8.37;4.60;;;3.30;99.90;;;;;;4999100;28;20431;-78
2021/11/28 00:46:25;;;;;;;9.07;4.30;;;3.20;99.90;;;;;;5025554;28;20045;-78
2021/11/28 00:48:50;;;;;;;9.27;4.27;;;3.30;99.90;;;;;;5030602;28;20485;-78
2021/11/28 00:53:46;;;;;;;6.27;3.50;;;3.30;99.90;;;;;;5027281;28;20026;-78
2021/11/28 00:56:12;;;;;;;10.43;4.00;;;3.40;99.90;;;;;;5033687;28;20025;-78
2021/11/28 00:58:37;;;;;;;9.00;4.07;;;3.50;99.90;;;;;;5015767;28;20022;-77
2021/11/28 01:01:04;;;;;;;9.93;4.03;;;3.50;99.90;;;;;;5034317;28;20032;-78
2021/11/28 01:03:29;;;;;;;5.60;3.30;;;3.50;99.90;;;;;;5016246;28;20120;-78
2021/11/28 01:05:55;;;;;;;8.93;3.60;;;3.60;99.90;;;;;;5015695;28;20075;-79
2021/11/28 01:08:22;;;;;;;7.53;3.33;;;3.50;99.90;;;;;;5016158;28;20029;-78
2021/11/28 01:10:48;;;;;;;7.30;3.70;;;3.50;99.90;;;;;;5033030;28;20025;-78
2021/11/28 01:13:15;;;;;;;5.23;3.30;;;3.50;99.90;;;;;;5016359;28;20021;-78
2021/11/28 01:15:41;;;;;;;6.27;3.47;;;3.50;99.90;;;;;;5033233;28;20111;-86
2021/11/28 01:18:07;;;;;;;6.33;3.40;;;3.50;99.90;;;;;;5033632;28;20458;-77
2021/11/28 01:20:32;;;;;;;6.03;2.77;;;3.50;99.90;;;;;;5016016;28;20394;-78
2021/11/28 01:22:58;;;;;;;9.03;3.60;;;3.50;99.90;;;;;;5007083;28;20030;-78
2021/11/28 01:25:24;;;;;;;9.27;3.73;;;3.60;99.90;;;;;;5004425;28;20145;-80
2021/11/28 01:27:50;;;;;;;6.53;3.23;;;3.60;99.90;;;;;;5027913;28;20037;-78
2021/11/28 01:30:16;;;;;;;7.17;3.00;;;3.70;99.90;;;;;;5016622;28;20109;-79
2021/11/28 01:32:42;;;;;;;8.90;3.13;;;3.60;99.90;;;;;;5015543;28;20052;-80
2021/11/28 01:35:11;;;;;;;7.03;3.07;;;3.60;99.90;;;;;;5033344;28;20533;-78
2021/11/28 01:37:37;;;;;;;4.23;2.50;;;3.60;99.90;;;;;;5010714;28;20026;-78
2021/11/28 01:40:06;;;;;;;4.80;3.17;;;3.60;99.90;;;;;;5015319;28;20148;-78
2021/11/28 01:42:50;;;;;;;5.80;3.27;;;3.60;99.90;;;;;;5015986;28;20025;-79
2021/11/28 01:45:27;;;;;;;6.57;3.07;;;3.60;99.90;;;;;;5033131;28;20045;-77
2021/11/28 01:47:56;;;;;;;6.83;3.33;;;3.60;99.90;;;;;;5013942;28;20025;-77
2021/11/28 01:50:25;;;;;;;5.50;2.73;;;3.60;99.90;;;;;;5001774;28;20018;-77
2021/11/28 01:52:51;;;;;;;4.37;3.00;;;3.60;99.90;;;;;;5005136;28;20037;-77
2021/11/28 01:55:25;;;;;;;7.10;3.57;;;3.60;99.90;;;;;;5005734;28;20028;-77
2021/11/28 01:57:51;;;;;;;7.80;4.17;;;3.50;99.90;;;;;;5029212;28;20033;-78
2021/11/28 02:00:24;;;;;;;8.40;4.53;;;3.60;99.90;;;;;;5018148;28;20026;-80
2021/11/28 02:02:51;;;;;;;9.80;3.40;;;3.60;99.90;;;;;;5005811;28;20042;-81
2021/11/28 02:05:19;;;;;;;9.10;3.50;;;3.60;99.90;;;;;;5028865;28;20026;-81
2021/11/28 02:07:45;;;;;;;6.47;3.23;;;3.60;99.90;;;;;;5011485;28;20485;-81
2021/11/28 02:10:11;;;;;;;8.17;3.20;;;3.60;99.90;;;;;;5028463;28;20021;-81
2021/11/28 02:12:38;;;;;;;6.67;3.00;;;3.60;99.90;;;;;;5007699;28;20080;-83
2021/11/28 02:15:05;;;;;;;6.53;2.93;;;3.60;99.90;;;;;;5026277;28;20033;-81
2021/11/28 02:17:31;;;;;;;7.27;3.13;;;3.60;99.90;;;;;;5011025;28;20018;-82
2021/11/28 02:19:56;;;;;;;6.47;3.53;;;3.60;99.90;;;;;;5009467;28;20044;-82
2021/11/28 02:22:22;;;;;;;5.23;3.10;;;3.60;99.90;;;;;;5012764;28;20083;-82
2021/11/28 02:24:48;;;;;;;6.43;3.37;;;3.60;99.90;;;;;;4999703;28;20393;-81
2021/11/28 02:27:14;;;;;;;8.33;2.97;;;3.70;99.90;;;;;;5000526;28;20022;-81
2021/11/28 02:29:42;;;;;;;5.67;3.23;;;3.60;99.90;;;;;;5017594;28;20029;-82
2021/11/28 02:32:08;;;;;;;7.23;3.50;;;3.60;99.90;;;;;;5017590;28;20033;-81
2021/11/28 02:34:34;;;;;;;8.03;3.27;;;3.60;99.90;;;;;;5000119;28;20057;-82
2021/11/28 02:37:00;;;;;;;5.87;3.00;;;3.60;99.90;;;;;;4999726;28;20022;-82
2021/11/28 02:39:26;;;;;;;8.03;3.57;;;3.60;99.90;;;;;;5000271;28;20018;-81
2021/11/28 02:41:51;;;;;;;6.97;3.50;;;3.60;99.90;;;;;;4999902;28;20037;-82
2021/11/28 02:44:17;;;;;;;5.60;3.13;;;3.60;99.90;;;;;;4999685;28;20033;-81
2021/11/28 02:46:44;;;;;;;5.13;3.20;;;3.60;99.90;;;;;;4999776;28;20026;-85
2021/11/28 02:49:10;;;;;;;7.03;3.10;;;3.60;99.90;;;;;;4999743;28;20030;-80
2021/11/28 02:51:37;;;;;;;6.57;3.17;;;3.60;99.90;;;;;;4999650;28;20487;-80
2021/11/28 02:54:05;;;;;;;4.63;2.97;;;3.60;99.90;;;;;;4999298;28;20026;-82
2021/11/28 02:56:31;;;;;;;7.63;3.37;;;3.60;99.90;;;;;;4999588;28;20022;-81
2021/11/28 02:58:56;;;;;;;7.63;3.40;;;3.60;99.90;;;;;;5016761;28;20032;-81
2021/11/28 03:01:23;;;;;;;6.83;3.10;;;3.60;99.90;;;;;;5017031;28;20100;-81
2021/11/28 03:03:52;;;;;;;6.43;3.07;;;3.60;99.90;;;;;;4999239;28;20034;-81
2021/11/28 03:06:18;;;;;;;5.47;3.43;;;3.60;99.90;;;;;;5017014;28;20026;-80
2021/11/28 03:08:44;;;;;;;7.77;3.50;;;3.50;99.90;;;;;;5016529;28;20032;-85
2021/11/28 03:11:12;;;;;;;8.30;2.83;;;3.50;99.90;;;;;;4999326;28;20029;-81
2021/11/28 03:13:50;;;;;;;6.73;2.93;;;3.50;99.90;;;;;;4999455;28;20040;-81
2021/11/28 03:16:19;;;;;;;7.00;3.07;;;3.60;99.90;;;;;;4999548;28;20037;-81
2021/11/28 03:18:46;;;;;;;4.37;2.67;;;3.60;99.90;;;;;;4998896;28;20022;-86
2021/11/28 03:21:14;;;;;;;8.73;3.37;;;3.60;99.90;;;;;;4999465;28;20481;-81
2021/11/28 03:23:43;;;;;;;4.93;3.03;;;3.60;99.90;;;;;;4999347;28;20021;-81
2021/11/28 03:26:24;;;;;;;6.40;2.70;;;3.60;99.90;;;;;;5015941;28;20076;-81
2021/11/28 03:28:56;;;;;;;6.27;2.93;;;3.60;99.90;;;;;;5016044;28;20025;-81
2021/11/28 03:31:23;;;;;;;;;;;3.60;99.90;;;;;;4999533;28;20037;-81
2021/11/28 03:33:48;;;;;;;5.53;2.93;;;3.50;99.90;;;;;;4998761;28;19996;-81
2021/11/28 03:36:18;;;;;;;7.37;2.93;;;3.50;99.90;;;;;;4999333;28;20060;-81
2021/11/28 03:38:44;;;;;;;7.23;3.00;;;3.60;99.90;;;;;;4998967;28;20451;-80
2021/11/28 03:41:11;;;;;;;6.03;3.13;;;3.50;99.90;;;;;;4998326;28;20344;-80
2021/11/28 03:43:38;;;;;;;8.10;3.83;;;3.60;99.90;;;;;;4998672;28;20057;-81
2021/11/28 03:46:04;;;;;;;6.00;3.30;;;3.60;99.90;;;;;;4998131;28;20418;-81
2021/11/28 03:48:30;;;;;;;9.70;3.77;;;3.50;99.90;;;;;;4998758;28;20075;-81
2021/11/28 03:50:55;;;;;;;5.20;3.10;;;3.50;99.90;;;;;;4998237;28;20120;-81
2021/11/28 03:53:21;;;;;;;8.07;3.07;;;3.50;99.90;;;;;;4998677;28;20026;-81
2021/11/28 03:55:48;;;;;;;6.17;3.27;;;3.60;99.90;;;;;;4998718;28;20347;-84
2021/11/28 03:58:14;;;;;;;4.37;2.93;;;3.60;99.90;;;;;;4998769;28;20025;-81
2021/11/28 04:00:40;;;;;;;9.17;3.27;;;3.50;99.90;;;;;;4998585;28;20026;-81
2021/11/28 04:03:08;;;;;;;6.40;3.33;;;3.60;99.90;;;;;;5014967;28;20037;-81
2021/11/28 04:05:34;;;;;;;8.37;3.20;;;3.60;99.90;;;;;;5015813;28;20060;-81
2021/11/28 04:08:00;;;;;;;6.90;3.20;;;3.60;99.90;;;;;;5015321;28;20037;-81
2021/11/28 04:10:26;;;;;;;6.73;3.20;;;3.70;99.90;;;;;;5015779;28;20033;-82
2021/11/28 04:12:51;;;;;;;5.23;2.83;;;3.70;99.90;;;;;;4997895;28;20351;-81
2021/11/28 04:15:17;;;;;;;5.13;2.60;;;3.70;99.90;;;;;;4998315;28;20041;-81
2021/11/28 04:17:42;;;;;;;9.27;2.90;;;3.60;99.90;;;;;;5015543;28;20097;-82
2021/11/28 04:20:09;;;;;;;5.10;3.03;;;3.70;99.90;;;;;;4997706;28;20124;-82
2021/11/28 04:22:35;;;;;;;9.00;3.47;;;3.70;99.90;;;;;;5015080;28;20022;-81
2021/11/28 04:25:03;;;;;;;5.87;2.87;;;3.60;99.90;;;;;;4998070;28;20037;-82
2021/11/28 04:27:28;;;;;;;6.07;3.33;;;3.70;99.90;;;;;;5015381;28;20093;-81
2021/11/28 04:29:54;;;;;;;7.90;3.30;;;3.60;99.90;;;;;;5014624;28;20096;-82
2021/11/28 04:32:19;;;;;;;5.73;3.30;;;3.70;99.90;;;;;;4997796;28;20056;-82
2021/11/28 04:34:45;;;;;;;11.17;3.40;;;3.70;99.90;;;;;;4998154;28;20076;-82
2021/11/28 04:37:11;;;;;;;7.93;3.40;;;3.70;99.90;;;;;;4997503;28;20091;-80
2021/11/28 04:39:38;;;;;;;5.30;3.30;;;3.70;99.90;;;;;;5015181;28;20018;-82
2021/11/28 04:42:04;;;;;;;6.50;3.77;;;3.70;99.90;;;;;;4997440;28;20037;-82
2021/11/28 04:44:30;;;;;;;6.57;3.30;;;3.60;99.90;;;;;;5015005;28;20030;-81
2021/11/28 04:46:56;;;;;;;6.20;3.03;;;3.60;99.90;;;;;;4997321;28;20041;-81
2021/11/28 04:49:22;;;;;;;5.50;2.83;;;3.70;99.90;;;;;;4997827;28;20029;-81
2021/11/28 04:51:47;;;;;;;6.53;3.43;;;3.70;99.90;;;;;;4997633;28;20036;-81
2021/11/28 04:54:15;;;;;;;10.23;3.70;;;3.60;99.90;;;;;;5014312;28;20057;-80
2021/11/28 04:56:42;;;;;;;6.90;3.70;;;3.60;99.90;;;;;;4997486;28;20120;-81
2021/11/28 04:59:07;;;;;;;6.57;3.40;;;3.60;99.90;;;;;;4997132;28;20055;-81
2021/11/28 05:01:34;;;;;;;8.50;3.60;;;3.60;99.90;;;;;;4997584;28;20033;-81
2021/11/28 05:04:00;;;;;;;7.47;3.73;;;3.50;99.90;;;;;;4997114;28;20076;-81
2021/11/28 05:06:26;;;;;;;6.07;3.37;;;3.50;99.90;;;;;;4997405;28;20018;-81
2021/11/28 05:08:51;;;;;;;5.13;3.33;;;3.50;99.90;;;;;;4996758;28;20520;-84
2021/11/28 05:11:17;;;;;;;7.50;3.43;;;3.50;99.90;;;;;;4997459;28;20080;-81
2021/11/28 05:13:42;;;;;;;7.33;3.47;;;3.60;99.90;;;;;;4997633;28;20076;-81
2021/11/28 05:16:08;;;;;;;8.60;3.50;;;3.50;99.90;;;;;;5014059;28;20037;-82
2021/11/28 05:18:34;;;;;;;7.13;3.83;;;3.60;99.90;;;;;;4997037;28;20474;-81
2021/11/28 05:20:59;;;;;;;7.07;3.43;;;3.60;99.90;;;;;;4996928;28;20446;-81
2021/11/28 05:23:25;;;;;;;10.53;3.50;;;3.60;99.90;;;;;;5014607;28;20443;-81
2021/11/28 05:25:51;;;;;;;7.50;3.30;;;3.50;99.90;;;;;;4997107;28;20022;-81
2021/11/28 05:28:17;;;;;;;6.57;3.13;;;3.50;99.90;;;;;;5014054;28;20022;-81
2021/11/28 05:30:42;;;;;;;6.73;3.07;;;3.60;99.90;;;;;;5014329;28;20014;-81
2021/11/28 05:33:08;;;;;;;8.73;3.20;;;3.50;99.90;;;;;;5013756;28;20041;-81
2021/11/28 05:35:34;;;;;;;8.93;3.23;;;3.50;99.90;;;;;;4996820;28;20172;-81
2021/11/28 05:38:00;;;;;;;10.67;3.67;;;3.50;99.90;;;;;;5014092;28;20462;-84
2021/11/28 05:40:26;;;;;;;6.40;3.10;;;3.60;99.90;;;;;;5014381;28;20084;-83
2021/11/28 05:42:53;;;;;;;5.70;2.90;;;3.60;99.90;;;;;;4997091;28;20426;-83
2021/11/28 05:45:21;;;;;;;7.70;3.47;;;3.60;99.90;;;;;;5014073;28;20053;-83
2021/11/28 05:47:48;;;;;;;6.03;3.23;;;3.60;99.90;;;;;;4997064;28;20028;-83
2021/11/28 05:50:14;;;;;;;9.77;3.40;;;3.60;99.90;;;;;;4996360;28;20153;-82
2021/11/28 05:52:41;;;;;;;5.97;3.10;;;3.70;99.90;;;;;;4996659;28;20033;-83
2021/11/28 05:55:07;;;;;;;11.67;3.50;;;3.60;99.90;;;;;;4996548;28;20026;-84
2021/11/28 05:57:33;;;;;;;4.50;3.03;;;3.60;99.90;;;;;;4996826;28;20060;-83
2021/11/28 05:59:59;;;;;;;7.43;3.23;;;3.60;99.90;;;;;;5013673;28;20059;-84
2021/11/28 06:02:24;;;;;;;7.53;3.40;;;3.60;99.90;;;;;;4996724;28;20026;-83
2021/11/28 06:04:50;;;;;;;5.23;3.10;;;3.60;99.90;;;;;;5014297;28;20029;-83
2021/11/28 06:07:16;;;;;;;7.07;3.03;;;3.60;99.90;;;;;;5013916;28;20022;-83
2021/11/28 06:09:42;;;;;;;5.23;2.90;;;3.60;99.90;;;;;;4996776;28;20113;-83
2021/11/28 06:12:08;;;;;;;8.30;3.00;;;3.60;99.90;;;;;;4996184;28;20030;-83
2021/11/28 06:14:34;;;;;;;9.60;3.57;;;3.60;99.90;;;;;;5014127;28;20116;-83
2021/11/28 06:17:00;;;;;;;8.67;3.63;;;3.60;99.90;;;;;;4996270;28;20423;-83
2021/11/28 06:19:26;;;;;;;5.67;3.07;;;3.50;99.90;;;;;;4996799;28;20022;-82
2021/11/28 06:21:52;;;;;;;4.23;2.70;;;3.60;99.90;;;;;;4996481;28;20485;-81
2021/11/28 06:24:18;;;;;;;8.63;3.17;;;3.60;99.90;;;;;;5013578;28;20022;-81
2021/11/28 06:26:44;;;;;;;8.40;3.60;;;3.50;99.90;;;;;;4996533;28;20139;-81
2021/11/28 06:29:09;;;;;;;7.73;2.97;;;3.50;99.90;;;;;;4996297;28;20108;-81
2021/11/28 06:31:35;;;;;;;5.87;2.83;;;3.50;99.90;;;;;;4996516;28;20030;-81
2021/11/28 06:34:01;;;;;;;7.53;3.40;;;3.50;99.90;;;;;;4996162;28;20030;-81
2021/11/28 06:36:26;;;;;;;5.33;2.77;;;3.60;99.90;;;;;;4996431;28;20045;-81
2021/11/28 06:38:52;;;;;;;6.47;2.80;;;3.60;99.90;;;;;;5013635;28;20102;-81
2021/11/28 06:41:18;;;;;;;7.40;3.10;;;3.50;99.90;;;;;;5013180;28;20490;-81
2021/11/28 06:43:43;;;;;;;7.30;3.00;;;3.40;99.90;;;;;;5013411;28;20018;-81
2021/11/28 06:46:09;;;;;;;8.33;3.13;;;3.40;99.90;;;;;;4997463;28;20136;-80
2021/11/28 06:48:35;;;;;;;7.10;3.00;;;3.40;99.90;;;;;;4999591;28;20493;-81
2021/11/28 06:51:01;;;;;;;4.70;2.70;;;3.40;99.90;;;;;;5016545;28;20028;-82
2021/11/28 06:53:26;;;;;;;8.30;3.20;;;3.30;99.90;;;;;;5017002;28;20148;-81
2021/11/28 06:55:52;;;;;;;5.47;2.60;;;3.30;99.90;;;;;;4999861;28;20447;-81
2021/11/28 06:58:20;;;;;;;7.57;3.20;;;3.20;99.90;;;;;;4999532;28;20044;-80
2021/11/28 07:00:46;;;;;;;5.33;2.80;;;3.20;99.90;;;;;;4999795;28;20041;-81
2021/11/28 07:03:11;;;;;;;5.90;3.37;;;3.20;99.90;;;;;;4999361;28;20034;-80
2021/11/28 07:05:42;;;;;;;6.43;3.07;;;3.20;99.90;;;;;;5017062;28;20042;-81
2021/11/28 07:08:08;;;;;;;5.40;3.17;;;3.10;99.90;;;;;;4999234;28;20033;-81
2021/11/28 07:10:33;;;;;;;7.07;3.33;;;3.10;99.90;;;;;;5016864;28;20021;-81
2021/11/28 07:12:59;;;;;;;5.80;3.00;;;3.10;99.90;;;;;;4998962;28;20477;-83
2021/11/28 07:15:25;;;;;;;4.80;2.53;;;3.10;99.90;;;;;;4999483;28;20029;-81
2021/11/28 07:17:50;;;;;;;7.00;2.90;;;3.10;99.90;;;;;;4999675;28;20037;-81
2021/11/28 07:20:16;;;;;;;4.47;2.37;;;3.10;99.90;;;;;;4999114;28;20025;-81
2021/11/28 07:22:42;;;;;;;5.57;2.63;;;3.10;99.90;;;;;;4999463;28;20514;-81
2021/11/28 07:25:08;;;;;;;5.43;2.90;;;3.10;99.90;;;;;;4998940;28;20025;-84
2021/11/28 07:27:33;;;;;;;5.97;3.47;;;3.10;99.90;;;;;;4999044;28;20029;-83
2021/11/28 07:30:01;;;;;;;7.43;3.00;;;3.10;99.90;;;;;;4999307;28;20018;-84
2021/11/28 07:32:26;;;;;;;6.97;3.27;;;3.10;99.90;;;;;;4999139;28;20375;-84
2021/11/28 07:34:52;;;;;;;7.33;3.10;;;3.10;99.90;;;;;;4999188;28;20034;-84
2021/11/28 07:37:18;;;;;;;7.33;3.20;;;3.00;99.90;;;;;;4998684;28;20450;-84
2021/11/28 07:39:43;;;;;;;8.63;3.23;;;3.00;99.90;;;;;;5000323;28;20079;-84
2021/11/28 07:42:09;;;;;;;6.10;3.10;;;3.00;99.90;;;;;;5006535;28;20030;-84
2021/11/28 07:44:35;;;;;;;6.13;2.87;;;2.90;99.90;;;;;;4999035;28;20506;-84
2021/11/28 07:47:01;;;;;;;6.57;2.90;;;2.90;99.90;;;;;;5002452;28;20065;-84
2021/11/28 07:49:27;;;;;;;4.00;2.70;;;2.90;99.90;;;;;;5027188;28;20044;-82
2021/11/28 07:51:53;;;;;;;5.47;3.10;;;2.90;99.90;;;;;;5017170;28;20033;-82
2021/11/28 07:54:19;;;;;;;7.10;2.90;;;2.90;99.90;;;;;;5016573;28;20029;-82
2021/11/28 07:56:46;;;;;;;6.77;3.43;;;2.90;99.90;;;;;;5007300;28;20084;-82
2021/11/28 07:59:13;;;;;;;6.13;3.10;;;2.80;99.90;;;;;;5013708;28;20116;-82
2021/11/28 08:01:39;;;;;;;4.93;3.00;;;2.80;99.90;;;;;;5015815;28;20091;-83
2021/11/28 08:04:05;;;;;;;8.33;3.20;;;2.90;99.90;;;;;;4998514;28;20030;-82
2021/11/28 08:06:30;;;;;;;5.70;3.20;;;3.00;99.90;;;;;;5014853;28;20017;-82
2021/11/28 08:08:56;;;;;;;6.33;3.27;;;2.90;99.90;;;;;;5009719;28;20029;-82
2021/11/28 08:11:21;;;;;;;6.40;3.60;;;2.90;99.90;;;;;;5002663;28;20029;-82
2021/11/28 08:13:50;;;;;;;8.50;3.63;;;2.90;99.90;;;;;;4995038;28;20030;-81
2021/11/28 08:16:16;;;;;;;6.90;3.20;;;2.90;99.90;;;;;;5015348;28;20100;-82
2021/11/28 08:18:42;;;;;;;6.93;3.27;;;3.00;99.90;;;;;;5008537;28;20022;-82
2021/11/28 08:21:08;;;;;;;5.87;3.43;;;3.00;99.90;;;;;;5004810;28;20374;-82
2021/11/28 08:23:34;;;;;;;7.03;3.50;;;3.00;99.90;;;;;;5014760;28;20045;-82
2021/11/28 08:26:00;;;;;;;6.93;3.87;;;3.10;99.90;;;;;;4998553;28;20068;-82
2021/11/28 08:28:25;;;;;;;5.17;3.10;;;3.10;99.90;;;;;;5032823;28;20442;-81
2021/11/28 08:30:51;;;;;;;5.70;3.60;;;3.20;99.90;;;;;;5006729;28;20026;-81
2021/11/28 08:33:17;;;;;;;8.10;3.70;;;3.20;99.90;;;;;;5023284;28;20474;-81
2021/11/28 08:35:43;;;;;;;6.47;3.17;;;3.30;99.90;;;;;;5018535;28;20350;-81
2021/11/28 08:38:09;;;;;;;5.47;3.33;;;3.30;99.90;;;;;;4996093;28;20480;-81
2021/11/28 08:40:37;;;;;;;10.53;3.63;;;3.40;99.90;;;;;;5020674;28;20049;-82
2021/11/28 08:43:05;;;;;;;7.60;3.50;;;3.40;99.90;;;;;;5005180;28;20026;-83
2021/11/28 08:45:32;;;;;;;7.37;3.43;;;3.40;99.90;;;;;;5007650;28;20049;-83
2021/11/28 08:47:57;;;;;;;6.40;3.37;;;3.50;99.90;;;;;;5031505;28;20026;-82
2021/11/28 08:50:23;;;;;;;7.37;3.70;;;3.50;99.90;;;;;;4997735;28;20028;-83
2021/11/28 08:52:48;;;;;;;8.10;3.70;;;3.50;99.90;;;;;;5014458;28;20057;-82
2021/11/28 08:55:16;;;;;;;7.20;3.27;;;3.60;99.90;;;;;;5003405;28;20037;-82
2021/11/28 08:57:42;;;;;;;7.03;3.70;;;3.60;99.90;;;;;;5026183;28;20088;-81
2021/11/28 09:00:09;;;;;;;6.77;3.47;;;3.70;99.90;;;;;;5013741;28;20124;-81
2021/11/28 09:02:35;;;;;;;7.70;3.43;;;3.70;99.90;;;;;;5025565;28;20022;-80
2021/11/28 09:05:01;;;;;;;6.67;3.40;;;3.80;99.90;;;;;;5021714;28;20373;-82
2021/11/28 09:07:27;;;;;;;6.53;3.73;;;3.80;99.90;;;;;;5013861;28;20362;-81
2021/11/28 09:09:53;;;;;;;5.23;3.77;;;3.90;99.90;;;;;;5007516;28;20091;-84
2021/11/28 09:12:19;;;;;;;7.80;3.60;;;3.90;99.90;;;;;;5019556;28;20049;-82
2021/11/28 09:14:44;;;;;;;8.57;3.37;;;4.00;99.90;;;;;;5007617;28;20072;-82
2021/11/28 09:17:10;;;;;;;7.77;3.70;;;4.10;99.90;;;;;;5018699;28;20037;-82
2021/11/28 09:19:48;;;;;;;7.63;3.53;;;4.10;99.90;;;;;;5005526;28;20072;-83
2021/11/28 09:22:23;;;;;;;7.43;3.83;;;4.10;99.90;;;;;;4998994;28;20062;-83
2021/11/28 09:24:49;;;;;;;8.20;3.90;;;4.10;99.90;;;;;;4999035;28;20504;-83
2021/11/28 09:27:17;;;;;;;9.10;4.20;;;4.10;99.90;;;;;;5022522;28;20028;-81
2021/11/28 09:29:45;;;;;;;9.37;3.90;;;4.20;99.90;;;;;;5022936;28;20021;-81
2021/11/28 09:32:16;;;;;;;8.57;3.83;;;4.20;99.90;;;;;;5019276;28;20079;-82
2021/11/28 09:34:42;;;;;;;6.03;3.80;;;4.20;99.90;;;;;;5023584;28;20045;-80
2021/11/28 09:37:10;;;;;;;7.23;3.90;;;4.30;99.90;;;;;;5019966;28;20053;-80
2021/11/28 09:39:38;;;;;;;8.53;4.17;;;4.30;99.90;;;;;;5022629;28;20025;-81
2021/11/28 09:42:07;;;;;;;8.93;3.70;;;4.30;99.90;;;;;;5003508;28;20040;-81
2021/11/28 09:44:36;;;;;;;10.47;4.50;;;4.40;99.90;;;;;;5003430;28;20030;-81
2021/11/28 09:47:04;;;;;;;5.87;3.67;;;4.40;99.90;;;;;;5006222;28;20026;-82
2021/11/28 09:49:30;;;;;;;8.27;4.40;;;4.40;99.90;;;;;;5023006;28;20104;-80
2021/11/28 09:52:00;;;;;;;7.07;3.70;;;4.40;99.90;;;;;;5002700;28;20109;-80
2021/11/28 09:54:27;;;;;;;5.57;3.60;;;4.40;99.90;;;;;;5002402;28;20080;-80
2021/11/28 09:56:52;;;;;;;7.97;3.87;;;4.30;99.90;;;;;;5005602;28;20022;-81
2021/11/28 09:59:19;;;;;;;8.00;3.83;;;4.40;99.90;;;;;;5023866;28;20356;-81
2021/11/28 10:01:44;;;;;;;8.63;3.70;;;4.50;99.90;;;;;;5003408;28;20454;-82
2021/11/28 10:04:10;;;;;;;6.67;3.80;;;4.50;99.90;;;;;;5019152;28;20080;-81
2021/11/28 10:06:36;;;;;;;10.40;4.30;;;4.50;99.90;;;;;;5002719;28;20469;-82
2021/11/28 10:09:07;;;;;;;5.87;3.50;;;4.50;99.90;;;;;;5003133;28;20030;-83
2021/11/28 10:11:42;;;;;;;5.57;3.30;;;4.60;99.90;;;;;;4999985;28;20074;-81
2021/11/28 10:14:13;;;;;;;7.20;3.57;;;4.50;99.90;;;;;;4992841;28;20374;-79
2021/11/28 10:16:40;;;;;;;8.90;3.80;;;4.60;99.90;;;;;;5000676;28;20030;-81
2021/11/28 10:19:07;;;;;;;9.70;4.23;;;4.60;99.90;;;;;;5009365;28;20017;-82
2021/11/28 10:21:33;;;;;;;6.33;3.40;;;4.60;99.90;;;;;;5024925;28;20032;-81
2021/11/28 10:24:12;;;;;;;10.37;4.60;;;4.70;99.90;;;;;;5017638;28;20441;-83
2021/11/28 10:27:04;;;;;;;8.63;3.63;;;4.60;99.90;;;;;;5002712;28;20351;-81
2021/11/28 10:29:36;;;;;;;8.65;4.03;;;4.70;99.90;;;;;;5003878;28;20025;-82
2021/11/28 10:32:04;;;;;;;5.55;3.42;;;4.80;99.90;;;;;;5027974;28;20500;-79
2021/11/28 10:34:36;;;;;;;5.57;2.80;;;4.80;99.90;;;;;;5011103;28;20373;-80
2021/11/28 10:37:08;;;;;;;6.15;2.85;;;4.80;99.90;;;;;;5002150;28;20118;-80
2021/11/28 10:39:43;;;;;;;7.40;3.25;;;4.90;99.90;;;;;;5016463;28;20038;-79
2021/11/28 10:42:32;;;;;;;7.90;3.00;;;4.90;99.90;;;;;;5006450;28;20034;-80
2021/11/28 10:45:14;;;;;;;8.77;3.20;;;5.00;99.90;;;;;;4989532;28;20040;-79
2021/11/28 10:47:49;;;;;;;6.37;3.00;;;5.00;99.90;;;;;;5013862;28;20052;-79
2021/11/28 10:50:19;;;;;;;7.47;2.80;;;5.00;99.90;;;;;;5012023;28;20031;-80
2021/11/28 10:52:48;;;;;;;5.53;2.10;;;5.10;99.90;;;;;;5001359;28;20041;-77
2021/11/28 10:55:18;;;;;;;4.80;2.10;;;5.10;99.90;;;;;;5027367;28;20450;-79
2021/11/28 10:57:45;;;;;;;4.03;1.90;;;5.20;99.90;;;;;;5014236;28;20029;-80
2021/11/28 11:00:12;;;;;;;3.60;1.90;;;5.20;99.50;;;;;;5013306;28;20076;-79
2021/11/28 11:02:40;;;;;;;4.53;2.10;;;5.20;99.70;;;;;;5010589;28;20053;-78
2021/11/28 11:05:10;;;;;;;4.03;2.10;;;5.20;99.70;;;;;;5002997;28;20116;-80
2021/11/28 11:07:48;;;;;;;3.33;2.10;;;5.20;99.80;;;;;;5026752;28;20092;-80
2021/11/28 11:10:29;;;;;;;2.47;1.90;;;5.30;99.70;;;;;;5032683;28;20045;-80
2021/11/28 11:12:57;;;;;;;3.87;1.90;;;5.30;99.50;;;;;;5032740;28;20135;-82
2021/11/28 11:15:38;;;;;;;5.50;2.40;;;5.30;99.50;;;;;;5013883;28;20299;-79
2021/11/28 11:18:10;;;;;;;3.28;2.05;;;5.30;99.40;;;;;;5005575;28;20025;-81
2021/11/28 11:20:38;;;;;;;3.17;1.73;;;5.30;99.40;;;;;;4997516;28;20373;-80
2021/11/28 11:23:24;;;;;;;5.57;1.97;;;5.20;98.90;;;;;;5002960;28;20104;-78
2021/11/28 11:25:50;;;;;;;4.10;1.93;;;5.30;99.40;;;;;;5002693;28;20018;-78
2021/11/28 11:28:15;;;;;;;3.37;2.10;;;5.30;98.90;;;;;;5005354;28;20347;-79
2021/11/28 11:30:42;;;;;;;2.63;1.67;;;5.20;99.20;;;;;;5026109;28;20474;-81
2021/11/28 11:33:10;;;;;;;4.40;1.63;;;5.20;99.30;;;;;;4996663;28;20036;-81
2021/11/28 11:35:41;;;;;;;4.03;1.97;;;5.30;99.00;;;;;;4995514;28;20026;-81
2021/11/28 11:38:11;;;;;;;3.30;1.80;;;5.20;99.30;;;;;;5024019;28;20052;-84
2021/11/28 11:40:37;;;;;;;4.03;2.07;;;5.30;99.30;;;;;;4999571;28;20461;-79
2021/11/28 11:43:03;;;;;;;3.97;2.00;;;5.20;99.00;;;;;;5012779;28;20021;-91
2021/11/28 11:45:33;;;;;;;4.67;2.17;;;5.20;99.20;;;;;;5019891;28;20091;-81
2021/11/28 11:47:59;;;;;;;2.77;1.70;;;5.30;99.30;;;;;;5001207;28;20037;-82
2021/11/28 11:50:28;;;;;;;6.40;2.10;;;5.30;99.10;;;;;;5027917;28;20043;-80
2021/11/28 11:52:54;;;;;;;7.33;2.20;;;5.20;99.10;;;;;;5010885;28;20021;-79
2021/11/28 11:55:23;;;;;;;3.67;1.70;;;5.30;99.30;;;;;;5002821;28;20068;-78
2021/11/28 11:58:28;;;;;;;4.20;1.90;;;5.30;99.40;;;;;;5000495;28;20018;-79
2021/11/28 12:01:17;;;;;;;2.83;1.93;;;5.30;99.30;;;;;;5003885;28;20021;-79
2021/11/28 12:03:53;;;;;;;5.93;2.43;;;5.40;99.60;;;;;;5002020;28;20030;-78
2021/11/28 12:06:45;;;;;;;3.27;2.00;;;5.40;99.40;;;;;;5013008;28;20026;-83
2021/11/28 12:09:23;;;;;;;3.85;2.00;;;5.40;99.30;;;;;;5004384;28;20459;-82
2021/11/28 12:12:01;;;;;;;3.00;2.10;;;5.40;99.50;;;;;;5010724;28;20062;-82
2021/11/28 12:14:27;;;;;;;3.53;1.80;;;5.40;99.50;;;;;;5010436;28;20120;-79
2021/11/28 12:16:53;;;;;;;4.03;2.37;;;5.40;99.40;;;;;;4994855;28;20026;-79
2021/11/28 12:19:38;;;;;;;4.33;2.40;;;5.40;99.30;;;;;;4995196;28;20022;-79
2021/11/28 12:22:05;;;;;;;34.47;14.23;;;5.50;99.10;;;;;;5009108;28;20036;-81
2021/11/28 12:24:30;;;;;;;101.93;42.43;;;5.60;99.20;;;;;;5014931;28;20028;-78
2021/11/28 12:27:01;;;;;;;8.93;4.97;;;5.60;99.30;;;;;;5030431;28;20377;-79
2021/11/28 12:29:39;;;;;;;8.07;3.90;;;5.60;98.60;;;;;;5001875;28;20034;-81
2021/11/28 12:32:17;;;;;;;4.60;2.80;;;5.60;98.60;;;;;;4996045;28;20030;-90
2021/11/28 12:34:49;;;;;;;5.30;2.50;;;5.60;98.50;;;;;;4995178;28;20021;-81
2021/11/28 12:37:22;;;;;;;3.63;2.03;;;5.60;98.20;;;;;;4994767;28;20026;-80
2021/11/28 12:39:49;;;;;;;2.77;1.80;;;5.60;97.80;;;;;;4996283;28;20033;-81
2021/11/28 12:42:20;;;;;;;3.47;1.60;;;5.60;97.70;;;;;;5029485;28;20494;-80
2021/11/28 12:44:48;;;;;;;2.87;1.70;;;5.70;97.80;;;;;;5014305;28;20045;-80
2021/11/28 12:47:14;;;;;;;3.07;1.90;;;5.80;97.70;;;;;;5004115;28;20091;-80
2021/11/28 12:49:44;;;;;;;3.73;2.13;;;5.70;98.20;;;;;;5007563;28;20116;-81
2021/11/28 12:52:25;;;;;;;4.83;1.97;;;5.60;98.00;;;;;;5003150;28;20034;-80
2021/11/28 12:55:03;;;;;;;3.30;1.97;;;5.60;98.50;;;;;;4998822;28;20029;-81
2021/11/28 12:57:34;;;;;;;3.80;1.87;;;5.60;98.70;;;;;;5004713;28;20029;-83
2021/11/28 13:00:25;;;;;;;4.05;1.85;;;5.50;98.50;;;;;;5012288;28;20093;-81
2021/11/28 13:02:52;;;;;;;8.70;4.20;;;5.40;98.20;;;;;;4995484;28;20030;-82
2021/11/28 13:05:30;;;;;;;9.97;4.50;;;5.30;98.10;;;;;;5002242;28;20030;-83
2021/11/28 13:08:15;;;;;;;3.03;2.30;;;5.20;98.20;;;;;;5027030;28;20029;-87